E.r. Borneo — A8SZ4 — position and weather

sailwx.info

Track history (hours):
 
Tides and Currents Weather Stations Pressure Air Temp Water Temp Dewpoint Dewpoint Depression Visibility Wind Speed Wind Dir Waves Ship Positions

E.r. Borneo

Last reported at 2015-Jun-14 20:25 UTC. Time now 2015-Jun-30 08:18 UTC.
Position S 33°40' E 027°46'.
Warning: this ship's position is 15 days out of date.

Length 292 m; draft 10.6 m.

Type: Cargo ship. MMSI: 636091797.

Date/timePositionNaut miles runAvg speedWind from/ knotsBaromVisibWave heightAir tempDewpointWater temp
2015-Jun-14 20:25S 33°40' E 027°46'17110.1
2015-Jun-14 03:26S 32°23' E 030°49'910.4
2015-Jun-14 02:33S 32°19' E 030°58'1110.6
2015-Jun-14 01:33S 32°14' E 031°09'1110.7
2015-Jun-14 00:33S 32°10' E 031°21'1111.0
2015-Jun-13 23:33S 32°05' E 031°32'1111.0
2015-Jun-13 22:33S 31°60' E 031°44'1111.2
2015-Jun-13 21:33S 31°54' E 031°55'1111.0
2015-Jun-13 20:33S 31°50' E 032°07'1411.4
2015-Jun-13 19:20S 31°43' E 032°22'4711.5
2015-Jun-13 15:15S 31°22' E 033°11'811.5
2015-Jun-13 14:33S 31°19' E 033°19'1111.3
2015-Jun-13 13:33S 31°13' E 033°31'  
Track history (hours):
 
Tides and Currents Weather Stations Pressure Air Temp Water Temp Dewpoint Dewpoint Depression Visibility Wind Speed Wind Dir Waves Ship Positions

E.r. Borneo

Last reported at 2015-Jun-14 20:25 UTC. Time now 2015-Jun-30 08:18 UTC.
Position S 33°40' E 027°46'.
Warning: this ship's position is 15 days out of date.

Length 292 m; draft 10.6 m.

Type: Cargo ship. MMSI: 636091797.

Date/timePositionNaut miles runAvg speedWind from/ knotsBaromVisibWave heightAir tempDewpointWater temp
2015-Jun-14 20:25S 33°40' E 027°46'17110.1
2015-Jun-14 03:26S 32°23' E 030°49'910.4
2015-Jun-14 02:33S 32°19' E 030°58'1110.6
2015-Jun-14 01:33S 32°14' E 031°09'1110.7
2015-Jun-14 00:33S 32°10' E 031°21'1111.0
2015-Jun-13 23:33S 32°05' E 031°32'1111.0
2015-Jun-13 22:33S 31°60' E 031°44'1111.2
2015-Jun-13 21:33S 31°54' E 031°55'1111.0
2015-Jun-13 20:33S 31°50' E 032°07'1411.4
2015-Jun-13 19:20S 31°43' E 032°22'4711.5
2015-Jun-13 15:15S 31°22' E 033°11'811.5
2015-Jun-13 14:33S 31°19' E 033°19'1111.3
2015-Jun-13 13:33S 31°13' E 033°31'  

Dump ship's entire track history